Terminal Aerodrome Forecast
Issued by NWS

Home | Current Version | Previous Version | Text Only | Print | Product List | Glossary On
Versions: 1 2 3 4 5 6 7 8 9 10 11 12 13 14 15
000
FTUS42 KTAE 231700 RRA
TAFDHN
TAF
KDHN 231747Z 2318/2418 33006KT P6SM BKN040
     FM240300 03004KT P6SM SKC
      TEMPO 2409/2412 5SM BR
     FM241300 VRB04KT P6SM SKC=

USA.gov is the U.S. government's official web portal to all federal, state and local government web resources and services.